Dyer, Kentucky
Current Conditions -  °F | °C
As of 5:58 PM on Wednesday 28 Jan 2015 (Local Time) from KFTK Reporting Station
Clear Clear  
Wind Chill: 28°   Ceiling: Unl
Heat Index: 34°   Visibility: 10mi
Dew Point: 17°   Wind: 7mph
Humidity: 49%   Direction: 110°ESE
Pressure: 30.19"   Gusts: NA
Location:  37.7438°N, 86.2725°W
Report Text: KFTK 282358Z AUTO 11006KT 10SM CLR 01/M08 A3019 RMK AO2 SLP236 T00131085 10046 20013 57012
Loading
Personal Weather Stations






























Interactive Weather Map New forecast layout! Learn more

10-Day Weather Forecast

Advertisements
Track Severe Weather on mobile